Time;durP1;ratioP1;P1;durP2;ratioP2;P2;SDS_P1;SDS_P2;PMS_P1;PMS_P2;Temp;Humidity;BMP_temperature;BMP_pressure;BME280_temperature;BME280_humidity;BME280_pressure;Samples;Min_cycle;Max_cycle;Signal;HPM_P1;HPM_P2
2021/07/26 00:01:32;;;;;;;2.30;2.10;;;;;;;;;;4982510;23;20243;-85
2021/07/26 00:04:01;;;;;;;1.50;1.40;;;;;;;;;;4971809;28;20204;-85
2021/07/26 00:06:28;;;;;;;1.42;1.33;;;;;;;;;;4972265;28;20247;-85
2021/07/26 00:08:56;;;;;;;1.55;1.45;;;;;;;;;;4972294;28;20214;-85
2021/07/26 00:11:23;;;;;;;1.38;1.27;;;;;;;;;;4972429;28;20239;-85
2021/07/26 00:13:51;;;;;;;2.95;1.58;;;;;;;;;;4972859;28;20191;-84
2021/07/26 00:16:18;;;;;;;2.55;1.30;;;;;;;;;;4972665;28;20204;-85
2021/07/26 00:18:46;;;;;;;2.17;2.08;;;;;;;;;;4972368;28;20678;-85
2021/07/26 00:21:15;;;;;;;1.60;1.50;;;;;;;;;;4972023;28;20234;-85
2021/07/26 00:23:43;;;;;;;1.50;1.40;;;;;;;;;;4972309;28;20185;-85
2021/07/26 00:26:11;;;;;;;1.23;1.13;;;;;;;;;;4972284;28;20193;-85
2021/07/26 00:28:39;;;;;;;1.33;1.23;;;;;;;;;;4971995;28;20662;-85
2021/07/26 00:31:06;;;;;;;1.35;1.23;;;;;;;;;;4972528;28;20271;-84
2021/07/26 00:34:19;;;;;;;1.45;1.35;;;;;;;;;;4972288;28;20181;-84
2021/07/26 00:36:50;;;;;;;1.40;1.30;;;;;;;;;;4972314;28;20190;-84
2021/07/26 00:39:19;;;;;;;1.17;1.17;;;;;;;;;;4972313;28;20192;-85
2021/07/26 00:41:48;;;;;;;1.08;1.05;;;;;;;;;;4972361;28;20592;-85
2021/07/26 00:44:17;;;;;;;1.20;1.13;;;;;;;;;;4972483;28;20281;-84
2021/07/26 00:46:45;;;;;;;1.42;1.33;;;;;;;;;;4971997;28;20208;-84
2021/07/26 00:49:15;;;;;;;1.33;1.23;;;;;;;;;;4972278;28;20188;-85
2021/07/26 00:51:45;;;;;;;1.50;1.40;;;;;;;;;;4972299;28;20279;-85
2021/07/26 00:54:17;;;;;;;1.20;1.17;;;;;;;;;;4972180;28;20192;-85
2021/07/26 00:56:46;;;;;;;1.10;1.10;;;;;;;;;;4974912;28;20193;-85
2021/07/26 00:59:14;;;;;;;1.48;1.27;;;;;;;;;;4975621;28;20292;-84
2021/07/26 01:01:42;;;;;;;1.17;1.17;;;;;;;;;;4975600;28;20232;-85
2021/07/26 01:04:09;;;;;;;1.85;1.67;;;;;;;;;;4975812;28;20196;-85
2021/07/26 01:06:37;;;;;;;2.00;1.80;;;;;;;;;;4976397;28;20594;-85
2021/07/26 01:09:05;;;;;;;1.90;1.80;;;;;;;;;;4976087;28;20200;-85
2021/07/26 01:11:34;;;;;;;1.58;1.48;;;;;;;;;;4976178;28;20278;-85
2021/07/26 01:14:02;;;;;;;1.52;1.42;;;;;;;;;;4975198;28;20194;-84
2021/07/26 01:16:30;;;;;;;1.40;1.30;;;;;;;;;;4975679;28;20200;-84
2021/07/26 01:19:00;;;;;;;1.50;1.40;;;;;;;;;;4975660;28;20287;-85
2021/07/26 01:21:30;;;;;;;1.58;1.48;;;;;;;;;;4975638;28;20590;-84
2021/07/26 01:23:58;;;;;;;1.67;1.30;;;;;;;;;;4975242;28;20207;-84
2021/07/26 01:26:27;;;;;;;1.60;1.50;;;;;;;;;;4975059;28;20200;-84
2021/07/26 01:28:58;;;;;;;1.80;1.70;;;;;;;;;;4973984;28;20679;-84
2021/07/26 01:31:26;;;;;;;1.50;1.40;;;;;;;;;;4974805;28;20228;-84
2021/07/26 01:33:54;;;;;;;1.83;1.73;;;;;;;;;;4975328;28;20200;-85
2021/07/26 01:36:23;;;;;;;1.60;1.50;;;;;;;;;;4974624;28;20208;-85
2021/07/26 01:38:53;;;;;;;2.30;2.00;;;;;;;;;;4974814;28;20203;-84
2021/07/26 01:41:22;;;;;;;1.60;1.50;;;;;;;;;;4974116;28;20312;-85
2021/07/26 01:44:02;;;;;;;1.60;1.50;;;;;;;;;;4974275;28;20271;-84
2021/07/26 01:46:55;;;;;;;1.52;1.42;;;;;;;;;;4974543;28;20195;-85
2021/07/26 01:49:49;;;;;;;1.38;1.27;;;;;;;;;;4974283;28;20581;-84
2021/07/26 01:52:17;;;;;;;1.92;1.65;;;;;;;;;;4974505;28;20557;-85
2021/07/26 01:54:46;;;;;;;1.77;1.67;;;;;;;;;;4974427;28;20247;-84
2021/07/26 01:57:14;;;;;;;1.45;1.35;;;;;;;;;;4973648;28;20211;-85
2021/07/26 01:59:42;;;;;;;1.48;1.38;;;;;;;;;;4973634;28;20189;-85
2021/07/26 02:02:10;;;;;;;1.95;1.73;;;;;;;;;;4955070;29;20208;-85
2021/07/26 02:04:37;;;;;;;1.75;1.65;;;;;;;;;;4954394;29;20185;-84
2021/07/26 02:07:06;;;;;;;1.38;1.27;;;;;;;;;;4953232;28;20647;-84
2021/07/26 02:09:34;;;;;;;1.38;1.27;;;;;;;;;;4954142;29;20248;-84
2021/07/26 02:12:04;;;;;;;1.58;1.48;;;;;;;;;;4954359;29;20260;-84
2021/07/26 02:14:31;;;;;;;1.40;1.30;;;;;;;;;;4954293;29;20201;-85
2021/07/26 02:16:59;;;;;;;2.47;1.50;;;;;;;;;;4954011;29;20196;-86
2021/07/26 02:19:26;;;;;;;1.65;1.55;;;;;;;;;;4953425;29;20639;-86
2021/07/26 02:21:54;;;;;;;1.50;1.40;;;;;;;;;;4953308;29;20223;-86
2021/07/26 02:24:22;;;;;;;1.65;1.55;;;;;;;;;;4953688;29;20200;-86
2021/07/26 02:26:49;;;;;;;1.45;1.30;;;;;;;;;;4953004;29;20213;-85
2021/07/26 02:29:18;;;;;;;1.67;1.58;;;;;;;;;;4951130;29;20192;-86
2021/07/26 02:31:46;;;;;;;1.85;1.75;;;;;;;;;;4951138;29;20247;-85
2021/07/26 02:34:13;;;;;;;1.77;1.67;;;;;;;;;;4951465;29;20736;-86
2021/07/26 02:36:41;;;;;;;1.48;1.38;;;;;;;;;;4952412;29;20193;-85
2021/07/26 02:39:08;;;;;;;1.35;1.25;;;;;;;;;;4952174;29;20220;-86
2021/07/26 02:41:36;;;;;;;2.05;1.85;;;;;;;;;;4951733;29;20225;-86
2021/07/26 02:44:04;;;;;;;1.50;1.40;;;;;;;;;;4952440;29;20204;-86
2021/07/26 02:46:33;;;;;;;1.40;1.30;;;;;;;;;;4953119;29;20193;-86
2021/07/26 02:49:00;;;;;;;1.33;1.23;;;;;;;;;;4952832;29;20197;-85
2021/07/26 02:51:27;;;;;;;1.40;1.30;;;;;;;;;;4952904;29;20244;-87
2021/07/26 02:53:56;;;;;;;1.95;1.60;;;;;;;;;;4952469;29;20212;-86
2021/07/26 02:56:23;;;;;;;1.50;1.40;;;;;;;;;;4952655;29;20197;-85
2021/07/26 02:58:51;;;;;;;1.45;1.35;;;;;;;;;;4952133;29;20208;-86
2021/07/26 03:01:18;;;;;;;1.17;1.08;;;;;;;;;;4964749;28;20243;-86
2021/07/26 03:03:47;;;;;;;2.42;1.30;;;;;;;;;;4971946;28;20251;-85
2021/07/26 03:06:15;;;;;;;1.23;1.17;;;;;;;;;;4971618;28;20693;-86
2021/07/26 03:08:43;;;;;;;1.45;1.42;;;;;;;;;;4971916;28;20188;-86
2021/07/26 03:11:11;;;;;;;1.30;1.23;;;;;;;;;;4972077;28;20224;-85
2021/07/26 03:13:39;;;;;;;1.38;1.27;;;;;;;;;;4971841;28;20189;-85
2021/07/26 03:16:08;;;;;;;2.10;1.90;;;;;;;;;;4972327;28;20272;-85
2021/07/26 03:18:35;;;;;;;1.55;1.45;;;;;;;;;;4971533;28;20659;-85
2021/07/26 03:21:05;;;;;;;1.10;1.05;;;;;;;;;;4971461;28;20224;-85
2021/07/26 03:23:33;;;;;;;1.33;1.23;;;;;;;;;;4971085;28;20207;-85
2021/07/26 03:26:00;;;;;;;1.30;1.20;;;;;;;;;;4971662;28;20192;-85
2021/07/26 03:28:28;;;;;;;1.20;1.20;;;;;;;;;;4971680;28;20302;-87
2021/07/26 03:30:55;;;;;;;1.50;1.40;;;;;;;;;;4971336;28;20235;-85
2021/07/26 03:33:23;;;;;;;2.08;1.98;;;;;;;;;;4971603;28;20193;-85
2021/07/26 03:35:50;;;;;;;1.52;1.42;;;;;;;;;;4971103;28;20204;-85
2021/07/26 03:38:21;;;;;;;1.70;1.60;;;;;;;;;;4971200;28;20231;-85
2021/07/26 03:40:49;;;;;;;2.50;2.30;;;;;;;;;;4971494;28;20230;-86
2021/07/26 03:43:16;;;;;;;1.75;1.65;;;;;;;;;;4970678;28;20199;-86
2021/07/26 03:45:44;;;;;;;1.77;1.60;;;;;;;;;;4971670;28;20558;-85
2021/07/26 03:48:12;;;;;;;3.45;2.78;;;;;;;;;;4971780;28;20205;-85
2021/07/26 03:50:40;;;;;;;2.03;1.92;;;;;;;;;;4971705;28;20239;-85
2021/07/26 03:53:07;;;;;;;1.40;1.30;;;;;;;;;;4971962;28;20223;-85
2021/07/26 03:55:37;;;;;;;1.88;1.77;;;;;;;;;;4971013;28;20219;-86
2021/07/26 03:58:05;;;;;;;1.70;1.60;;;;;;;;;;4971504;28;20239;-85
2021/07/26 04:00:34;;;;;;;1.77;1.67;;;;;;;;;;4970714;28;20244;-85
2021/07/26 04:03:09;;;;;;;1.63;1.52;;;;;;;;;;4971117;28;21089;-86
2021/07/26 04:05:38;;;;;;;1.60;1.50;;;;;;;;;;4971150;28;20228;-85
2021/07/26 04:08:11;;;;;;;2.10;1.60;;;;;;;;;;4970995;28;20196;-86
2021/07/26 04:10:42;;;;;;;1.63;1.52;;;;;;;;;;4971844;28;20635;-86
2021/07/26 04:13:10;;;;;;;1.60;1.50;;;;;;;;;;4971376;28;20224;-86
2021/07/26 04:15:39;;;;;;;1.65;1.55;;;;;;;;;;4971493;28;20195;-85
2021/07/26 04:18:06;;;;;;;2.20;1.95;;;;;;;;;;4971932;28;20191;-85
2021/07/26 04:20:34;;;;;;;1.95;1.80;;;;;;;;;;4970597;28;20228;-85
2021/07/26 04:23:01;;;;;;;2.30;2.10;;;;;;;;;;4970766;28;20208;-86
2021/07/26 04:25:28;;;;;;;1.60;1.50;;;;;;;;;;4970648;28;20235;-85
2021/07/26 04:27:57;;;;;;;2.10;2.00;;;;;;;;;;4970823;28;20215;-85
2021/07/26 04:30:25;;;;;;;1.50;1.40;;;;;;;;;;4972076;28;20718;-85
2021/07/26 04:32:52;;;;;;;1.75;1.65;;;;;;;;;;4974864;28;20213;-85
2021/07/26 04:35:19;;;;;;;1.80;1.70;;;;;;;;;;4974479;28;20215;-86
2021/07/26 04:37:47;;;;;;;1.52;1.42;;;;;;;;;;4974666;28;20212;-85
2021/07/26 04:40:15;;;;;;;1.23;1.20;;;;;;;;;;4974590;28;20231;-86
2021/07/26 04:42:44;;;;;;;1.95;1.85;;;;;;;;;;4974693;28;20581;-86
2021/07/26 04:45:14;;;;;;;3.25;2.92;;;;;;;;;;4975009;28;20185;-86
2021/07/26 04:48:03;;;;;;;2.15;2.05;;;;;;;;;;4978132;28;20823;-86
2021/07/26 04:50:30;;;;;;;1.85;1.75;;;;;;;;;;4977376;28;20228;-85
2021/07/26 04:52:58;;;;;;;2.75;2.05;;;;;;;;;;4977544;28;20228;-86
2021/07/26 04:55:26;;;;;;;2.30;2.10;;;;;;;;;;4977346;28;20189;-86
2021/07/26 04:57:53;;;;;;;2.00;1.90;;;;;;;;;;4976574;28;20209;-85
2021/07/26 05:00:22;;;;;;;3.08;2.05;;;;;;;;;;4981468;28;20230;-86
2021/07/26 05:02:50;;;;;;;1.85;1.75;;;;;;;;;;4995834;28;20208;-86
2021/07/26 05:05:17;;;;;;;2.10;1.77;;;;;;;;;;4995707;28;20212;-86
2021/07/26 05:07:45;;;;;;;2.53;2.25;;;;;;;;;;4995442;28;20230;-85
2021/07/26 05:10:13;;;;;;;1.73;1.63;;;;;;;;;;4988386;28;20304;-86
2021/07/26 05:12:42;;;;;;;2.78;2.55;;;;;;;;;;4975986;28;20226;-86
2021/07/26 05:15:11;;;;;;;2.78;2.55;;;;;;;;;;4976069;28;20212;-86
2021/07/26 05:17:40;;;;;;;2.05;1.80;;;;;;;;;;4985449;28;20192;-86
2021/07/26 05:20:09;;;;;;;1.55;1.45;;;;;;;;;;4989912;28;20220;-86
2021/07/26 05:22:39;;;;;;;2.70;2.50;;;;;;;;;;4976051;28;20211;-86
2021/07/26 05:25:07;;;;;;;1.75;1.65;;;;;;;;;;4976131;28;20200;-87
2021/07/26 05:27:35;;;;;;;1.70;1.60;;;;;;;;;;4975984;28;20184;-86
2021/07/26 05:30:03;;;;;;;1.42;1.33;;;;;;;;;;4975769;28;20278;-86
2021/07/26 05:32:31;;;;;;;3.22;2.92;;;;;;;;;;4975567;28;20224;-87
2021/07/26 05:35:00;;;;;;;2.10;1.98;;;;;;;;;;4975644;28;20185;-87
2021/07/26 05:37:27;;;;;;;2.08;1.98;;;;;;;;;;4975537;28;20212;-87
2021/07/26 05:39:54;;;;;;;2.13;2.03;;;;;;;;;;4975390;28;20228;-87
2021/07/26 05:42:22;;;;;;;1.42;1.33;;;;;;;;;;4975402;28;20208;-86
2021/07/26 05:44:49;;;;;;;1.42;1.33;;;;;;;;;;4975152;28;20208;-87
2021/07/26 05:47:17;;;;;;;1.42;1.30;;;;;;;;;;4975656;28;20195;-87
2021/07/26 05:49:44;;;;;;;1.55;1.45;;;;;;;;;;4975034;28;20219;-86
2021/07/26 05:52:16;;;;;;;1.67;1.50;;;;;;;;;;4972791;28;20208;-86
2021/07/26 05:54:44;;;;;;;2.63;2.42;;;;;;;;;;4975318;28;20675;-86
2021/07/26 05:57:15;;;;;;;3.17;2.42;;;;;;;;;;4975191;28;20213;-86
2021/07/26 05:59:43;;;;;;;2.85;2.63;;;;;;;;;;4975425;28;20192;-86
2021/07/26 06:02:11;;;;;;;2.08;1.98;;;;;;;;;;4956038;29;20675;-86
2021/07/26 06:04:38;;;;;;;2.60;2.40;;;;;;;;;;4954541;29;20204;-86
2021/07/26 06:07:05;;;;;;;2.10;1.95;;;;;;;;;;4953383;29;20201;-87
2021/07/26 06:09:34;;;;;;;2.22;2.08;;;;;;;;;;4954961;29;20215;-87
2021/07/26 06:12:01;;;;;;;2.20;2.10;;;;;;;;;;4955687;29;20212;-87
2021/07/26 06:14:29;;;;;;;3.30;3.00;;;;;;;;;;4955520;29;20216;-90
2021/07/26 06:16:59;;;;;;;3.17;2.42;;;;;;;;;;4955465;29;20204;-89
2021/07/26 06:19:27;;;;;;;2.58;1.95;;;;;;;;;;4955651;29;20195;-83
2021/07/26 06:21:56;;;;;;;3.03;2.17;;;;;;;;;;4955421;28;20225;-90
2021/07/26 06:24:25;;;;;;;3.15;2.50;;;;;;;;;;4955394;29;20186;-86
2021/07/26 06:26:56;;;;;;;3.53;3.10;;;;;;;;;;4955057;29;20645;-88
2021/07/26 06:29:24;;;;;;;2.70;2.08;;;;;;;;;;4955381;29;20242;-87
2021/07/26 06:31:52;;;;;;;3.28;2.60;;;;;;;;;;4954809;28;20228;-87
2021/07/26 06:34:19;;;;;;;2.40;2.20;;;;;;;;;;4954985;28;20248;-84
2021/07/26 06:36:47;;;;;;;3.00;2.80;;;;;;;;;;4953824;29;20668;-85
2021/07/26 06:39:14;;;;;;;1.85;1.75;;;;;;;;;;4954984;29;20193;-85
2021/07/26 06:41:42;;;;;;;2.22;2.03;;;;;;;;;;4954850;28;20239;-86
2021/07/26 06:44:11;;;;;;;2.28;2.08;;;;;;;;;;4954737;29;20659;-85
2021/07/26 06:46:40;;;;;;;2.38;2.17;;;;;;;;;;4954004;29;20193;-85
2021/07/26 06:49:07;;;;;;;3.05;2.45;;;;;;;;;;4954902;28;20201;-86
2021/07/26 06:51:35;;;;;;;3.33;2.80;;;;;;;;;;4954729;28;20225;-85
2021/07/26 06:54:02;;;;;;;2.78;2.50;;;;;;;;;;4954296;28;20240;-85
2021/07/26 06:56:30;;;;;;;2.05;1.95;;;;;;;;;;4954779;28;20201;-85
2021/07/26 06:58:57;;;;;;;2.20;2.00;;;;;;;;;;4955216;29;20561;-85
2021/07/26 07:01:27;;;;;;;2.95;2.33;;;;;;;;;;4953806;28;20237;-85
2021/07/26 07:03:55;;;;;;;2.40;2.20;;;;;;;;;;4953788;29;20672;-85
2021/07/26 07:06:24;;;;;;;4.00;3.67;;;;;;;;;;4969055;28;20295;-86
2021/07/26 07:08:52;;;;;;;4.25;3.85;;;;;;;;;;4973657;28;20204;-85
2021/07/26 07:11:20;;;;;;;3.33;3.03;;;;;;;;;;4973647;28;20220;-86
2021/07/26 07:13:50;;;;;;;4.07;2.88;;;;;;;;;;4973244;28;20231;-86
2021/07/26 07:16:19;;;;;;;3.08;2.88;;;;;;;;;;4973235;28;20267;-85
2021/07/26 07:18:49;;;;;;;3.72;2.90;;;;;;;;;;4973552;28;20703;-86
2021/07/26 07:21:17;;;;;;;3.35;3.05;;;;;;;;;;4973571;28;20231;-85
2021/07/26 07:23:45;;;;;;;3.10;2.90;;;;;;;;;;4973488;28;20255;-87
2021/07/26 07:26:13;;;;;;;2.78;2.28;;;;;;;;;;4973190;28;20232;-87
2021/07/26 07:28:41;;;;;;;3.42;3.05;;;;;;;;;;4973196;28;20188;-86
2021/07/26 07:31:08;;;;;;;2.75;2.55;;;;;;;;;;4973266;28;20224;-85
2021/07/26 07:33:36;;;;;;;3.17;2.55;;;;;;;;;;4973490;28;20295;-84
2021/07/26 07:36:06;;;;;;;2.53;2.30;;;;;;;;;;4961112;28;20200;-85
2021/07/26 07:38:34;;;;;;;3.10;2.90;;;;;;;;;;4954334;29;20189;-86
2021/07/26 07:41:04;;;;;;;4.75;3.97;;;;;;;;;;4954057;29;20231;-85
2021/07/26 07:43:32;;;;;;;5.13;3.38;;;;;;;;;;4954430;29;20273;-84
2021/07/26 07:46:00;;;;;;;3.20;3.00;;;;;;;;;;4965935;28;20297;-84
2021/07/26 07:48:29;;;;;;;4.43;3.20;;;;;;;;;;4973162;28;20218;-85
2021/07/26 07:50:57;;;;;;;2.63;2.42;;;;;;;;;;4973738;28;20228;-85
2021/07/26 07:53:27;;;;;;;2.33;2.17;;;;;;;;;;4973361;28;20193;-84
2021/07/26 07:55:54;;;;;;;3.65;3.30;;;;;;;;;;4973213;28;20192;-85
2021/07/26 07:58:22;;;;;;;2.78;2.45;;;;;;;;;;4973513;28;20194;-85
2021/07/26 08:00:52;;;;;;;2.70;2.50;;;;;;;;;;4973199;28;20242;-82
2021/07/26 08:03:20;;;;;;;3.15;2.95;;;;;;;;;;4973200;28;20734;-82
2021/07/26 08:05:47;;;;;;;2.60;2.50;;;;;;;;;;4976570;28;20230;-83
2021/07/26 08:08:15;;;;;;;2.65;2.45;;;;;;;;;;4977134;28;20295;-84
2021/07/26 08:10:44;;;;;;;2.60;2.40;;;;;;;;;;4977017;28;20728;-84
2021/07/26 08:13:12;;;;;;;2.85;2.65;;;;;;;;;;4976903;28;20180;-84
2021/07/26 08:15:39;;;;;;;2.08;1.90;;;;;;;;;;4976205;28;20224;-84
2021/07/26 08:18:08;;;;;;;2.20;2.00;;;;;;;;;;4976917;28;20196;-85
2021/07/26 08:20:35;;;;;;;2.13;2.03;;;;;;;;;;4976893;28;20265;-84
2021/07/26 08:23:03;;;;;;;2.03;1.92;;;;;;;;;;4976545;28;20199;-85
2021/07/26 08:25:30;;;;;;;2.33;2.17;;;;;;;;;;4976557;28;20283;-85
2021/07/26 08:28:00;;;;;;;1.80;1.70;;;;;;;;;;4976557;28;20208;-85
2021/07/26 08:30:29;;;;;;;2.08;1.98;;;;;;;;;;4977012;28;20224;-85
2021/07/26 08:32:56;;;;;;;1.77;1.52;;;;;;;;;;4976302;28;20188;-85
2021/07/26 08:35:25;;;;;;;1.60;1.50;;;;;;;;;;4976400;28;20216;-85
2021/07/26 08:37:53;;;;;;;1.38;1.27;;;;;;;;;;4976622;28;20189;-85
2021/07/26 08:40:23;;;;;;;1.48;1.38;;;;;;;;;;4976679;28;20224;-85
2021/07/26 08:42:51;;;;;;;2.30;1.70;;;;;;;;;;4976712;28;20215;-84
2021/07/26 08:45:20;;;;;;;1.65;1.55;;;;;;;;;;4976113;28;20329;-85
2021/07/26 08:47:49;;;;;;;1.50;1.40;;;;;;;;;;4976146;28;20191;-85
2021/07/26 08:50:19;;;;;;;1.45;1.35;;;;;;;;;;4976249;28;20710;-85
2021/07/26 08:52:49;;;;;;;1.90;1.80;;;;;;;;;;4976572;28;20196;-86
2021/07/26 08:55:18;;;;;;;2.00;1.80;;;;;;;;;;4976415;28;20227;-85
2021/07/26 08:57:48;;;;;;;1.92;1.83;;;;;;;;;;4975968;28;20714;-86
2021/07/26 09:00:17;;;;;;;1.77;1.67;;;;;;;;;;4975297;28;20234;-85
2021/07/26 09:02:46;;;;;;;1.63;1.52;;;;;;;;;;4976339;28;20196;-86
2021/07/26 09:05:15;;;;;;;2.15;2.05;;;;;;;;;;4975880;28;20185;-86
2021/07/26 09:07:45;;;;;;;2.08;1.98;;;;;;;;;;4976392;28;20216;-86
2021/07/26 09:10:14;;;;;;;2.53;2.33;;;;;;;;;;4975956;28;20282;-86
2021/07/26 09:12:43;;;;;;;2.90;2.70;;;;;;;;;;4975922;28;20204;-86
2021/07/26 09:15:29;;;;;;;2.42;2.22;;;;;;;;;;4975658;28;20231;-86
2021/07/26 09:18:00;;;;;;;2.53;2.38;;;;;;;;;;4975340;28;20536;-86
2021/07/26 09:20:29;;;;;;;2.40;2.20;;;;;;;;;;4975670;28;20228;-86
2021/07/26 09:22:58;;;;;;;2.13;1.92;;;;;;;;;;4975687;28;20823;-86
2021/07/26 09:25:27;;;;;;;1.77;1.67;;;;;;;;;;4975917;28;20200;-86
2021/07/26 09:28:10;;;;;;;2.03;1.92;;;;;;;;;;4975878;28;20192;-86
2021/07/26 09:30:46;;;;;;;2.25;2.05;;;;;;;;;;4975393;28;20227;-87
2021/07/26 09:33:32;;;;;;;1.95;1.85;;;;;;;;;;4975644;28;20200;-86
2021/07/26 09:36:13;;;;;;;1.33;1.25;;;;;;;;;;4975341;28;20290;-86
2021/07/26 09:38:43;;;;;;;1.35;1.25;;;;;;;;;;4975569;28;20189;-88
2021/07/26 09:41:10;;;;;;;1.35;1.25;;;;;;;;;;4975408;28;20232;-88
2021/07/26 09:43:39;;;;;;;1.70;1.60;;;;;;;;;;4975220;28;20663;-88
2021/07/26 09:46:06;;;;;;;1.33;1.30;;;;;;;;;;4975154;28;20242;-87
2021/07/26 09:48:35;;;;;;;1.80;1.70;;;;;;;;;;4974713;28;20208;-87
2021/07/26 09:51:04;;;;;;;1.75;1.65;;;;;;;;;;4974701;28;20724;-86
2021/07/26 09:53:32;;;;;;;1.73;1.63;;;;;;;;;;4975228;28;20185;-87
2021/07/26 09:56:13;;;;;;;1.85;1.75;;;;;;;;;;4975224;28;20212;-86
2021/07/26 09:58:42;;;;;;;2.15;1.95;;;;;;;;;;4975116;28;20184;-86
2021/07/26 10:01:12;;;;;;;2.20;2.10;;;;;;;;;;4974832;28;20239;-86
2021/07/26 10:03:43;;;;;;;2.20;2.10;;;;;;;;;;4974356;28;20795;-87
2021/07/26 10:06:13;;;;;;;1.85;1.75;;;;;;;;;;4974486;28;20211;-86
2021/07/26 10:08:41;;;;;;;2.80;2.60;;;;;;;;;;4974887;28;20295;-86
2021/07/26 10:11:10;;;;;;;2.00;1.90;;;;;;;;;;4974513;28;20224;-87
2021/07/26 10:13:41;;;;;;;2.00;1.90;;;;;;;;;;4974796;28;20240;-86
2021/07/26 10:16:14;;;;;;;1.85;1.75;;;;;;;;;;4973992;28;20224;-85
2021/07/26 10:18:45;;;;;;;2.53;2.30;;;;;;;;;;4974525;28;20189;-84
2021/07/26 10:21:16;;;;;;;2.70;2.50;;;;;;;;;;4974129;28;20228;-86
2021/07/26 10:23:53;;;;;;;1.80;1.70;;;;;;;;;;4974549;28;20196;-85
2021/07/26 10:26:24;;;;;;;2.08;1.95;;;;;;;;;;4974391;28;20725;-85
2021/07/26 10:28:54;;;;;;;2.28;2.17;;;;;;;;;;4973855;28;20196;-86
2021/07/26 10:31:38;;;;;;;1.95;1.85;;;;;;;;;;4974279;28;20224;-84
2021/07/26 10:34:09;;;;;;;2.00;1.90;;;;;;;;;;4972367;28;20211;-84
2021/07/26 10:36:56;;;;;;;2.40;2.28;;;;;;;;;;4974275;28;20220;-84
2021/07/26 10:39:24;;;;;;;2.03;1.90;;;;;;;;;;4974604;28;20240;-84
2021/07/26 10:42:09;;;;;;;2.63;2.42;;;;;;;;;;4974402;28;20232;-83
2021/07/26 10:44:47;;;;;;;2.30;2.20;;;;;;;;;;4974399;28;20204;-83
2021/07/26 10:47:18;;;;;;;2.45;2.25;;;;;;;;;;4974176;28;20196;-83
2021/07/26 10:50:13;;;;;;;2.85;2.42;;;;;;;;;;4974303;28;20184;-84
2021/07/26 10:52:48;;;;;;;2.10;2.00;;;;;;;;;;4974376;28;20197;-84
2021/07/26 10:56:09;;;;;;;2.53;2.33;;;;;;;;;;4973706;28;20208;-85
2021/07/26 10:59:01;;;;;;;2.10;2.00;;;;;;;;;;4949679;28;20208;-84
2021/07/26 11:01:59;;;;;;;1.95;1.85;;;;;;;;;;4973773;28;20331;-84
2021/07/26 11:04:43;;;;;;;2.03;1.88;;;;;;;;;;4972958;28;20219;-84
2021/07/26 11:07:29;;;;;;;2.28;2.05;;;;;;;;;;4969643;28;20204;-83
2021/07/26 11:09:57;;;;;;;1.70;1.60;;;;;;;;;;4973439;28;20235;-82
2021/07/26 11:12:58;;;;;;;1.40;1.40;;;;;;;;;;4972971;28;20224;-81
2021/07/26 11:15:47;;;;;;;1.75;1.65;;;;;;;;;;4974208;28;20577;-82
2021/07/26 11:18:21;;;;;;;1.83;1.73;;;;;;;;;;4973976;28;20675;-86
2021/07/26 11:21:04;;;;;;;1.40;1.30;;;;;;;;;;4973975;28;20698;-85
2021/07/26 11:23:53;;;;;;;1.80;1.70;;;;;;;;;;4974465;28;20196;-86
2021/07/26 11:26:29;;;;;;;1.75;1.65;;;;;;;;;;4973052;28;20188;-86
2021/07/26 11:29:00;;;;;;;1.73;1.40;;;;;;;;;;4974196;28;20295;-86
2021/07/26 11:31:32;;;;;;;1.65;1.55;;;;;;;;;;4974083;28;20278;-86
2021/07/26 11:34:10;;;;;;;1.67;1.58;;;;;;;;;;4973782;28;20208;-87
2021/07/26 11:36:54;;;;;;;1.65;1.55;;;;;;;;;;4972392;28;20235;-86
2021/07/26 11:39:22;;;;;;;1.45;1.35;;;;;;;;;;4974768;28;20208;-87
2021/07/26 11:41:56;;;;;;;1.73;1.63;;;;;;;;;;4973588;28;20312;-87
2021/07/26 11:44:28;;;;;;;1.50;1.40;;;;;;;;;;4973757;28;20197;-87
2021/07/26 11:46:56;;;;;;;1.42;1.33;;;;;;;;;;4973226;28;20204;-87
2021/07/26 11:49:24;;;;;;;1.83;1.73;;;;;;;;;;4975644;28;20199;-86
2021/07/26 11:52:07;;;;;;;1.58;1.48;;;;;;;;;;4974907;28;20227;-86
2021/07/26 11:54:36;;;;;;;2.35;2.25;;;;;;;;;;4987293;28;20202;-85
2021/07/26 11:57:09;;;;;;;1.40;1.30;;;;;;;;;;4990645;28;20235;-84
2021/07/26 11:59:40;;;;;;;1.58;1.48;;;;;;;;;;4990508;28;20259;-84
2021/07/26 12:02:10;;;;;;;2.25;2.05;;;;;;;;;;4981365;28;20676;-84
2021/07/26 12:04:38;;;;;;;1.52;1.42;;;;;;;;;;4977103;28;20213;-84
2021/07/26 12:07:12;;;;;;;1.98;1.88;;;;;;;;;;4972896;28;20199;-86
2021/07/26 12:09:53;;;;;;;1.65;1.55;;;;;;;;;;4972528;28;20550;-86
2021/07/26 12:12:35;;;;;;;1.13;1.13;;;;;;;;;;4975450;28;20278;-87
2021/07/26 12:15:24;;;;;;;1.08;1.08;;;;;;;;;;4971617;28;20576;-86
2021/07/26 12:18:06;;;;;;;1.40;1.30;;;;;;;;;;4972810;28;20224;-85
2021/07/26 12:20:34;;;;;;;1.70;1.60;;;;;;;;;;4972492;28;20275;-86
2021/07/26 12:23:13;;;;;;;0.85;0.85;;;;;;;;;;4973104;28;20200;-86
2021/07/26 12:25:47;;;;;;;1.30;1.20;;;;;;;;;;4972375;28;20208;-86
2021/07/26 12:28:16;;;;;;;1.40;1.35;;;;;;;;;;4971956;28;20196;-87
2021/07/26 12:30:45;;;;;;;1.40;1.13;;;;;;;;;;4971983;28;20221;-88
2021/07/26 12:33:26;;;;;;;1.20;1.20;;;;;;;;;;4972264;28;20205;-84
2021/07/26 12:36:11;;;;;;;1.50;1.40;;;;;;;;;;4972741;28;20210;-84
2021/07/26 12:38:39;;;;;;;1.55;1.45;;;;;;;;;;4973108;28;20209;-85
2021/07/26 12:41:11;;;;;;;1.20;1.20;;;;;;;;;;4972606;28;20599;-85
2021/07/26 12:43:42;;;;;;;1.25;1.25;;;;;;;;;;4972617;28;20267;-85
2021/07/26 12:46:09;;;;;;;1.65;1.20;;;;;;;;;;4970062;28;20208;-86
2021/07/26 12:48:38;;;;;;;1.50;1.40;;;;;;;;;;4971932;28;20181;-86
2021/07/26 12:51:09;;;;;;;1.52;1.42;;;;;;;;;;4972431;28;20227;-86
2021/07/26 12:53:49;;;;;;;1.58;1.48;;;;;;;;;;4975329;28;20200;-85
2021/07/26 12:56:19;;;;;;;1.52;1.40;;;;;;;;;;4974263;28;20204;-85
2021/07/26 12:58:47;;;;;;;1.40;1.30;;;;;;;;;;4975698;28;20208;-85
2021/07/26 13:01:14;;;;;;;1.40;1.30;;;;;;;;;;4975084;28;20240;-86
2021/07/26 13:03:42;;;;;;;1.23;1.23;;;;;;;;;;4974654;28;20188;-88
2021/07/26 13:06:16;;;;;;;1.20;1.20;;;;;;;;;;4976440;28;20196;-87
2021/07/26 13:08:45;;;;;;;1.40;1.30;;;;;;;;;;4976405;28;20220;-86
2021/07/26 13:11:13;;;;;;;1.55;1.45;;;;;;;;;;4975448;28;21035;-85
2021/07/26 13:13:41;;;;;;;1.63;1.52;;;;;;;;;;4975231;28;20189;-85
2021/07/26 13:16:10;;;;;;;1.55;1.45;;;;;;;;;;4975088;28;20215;-86
2021/07/26 13:18:39;;;;;;;1.70;1.60;;;;;;;;;;4975613;28;20680;-85
2021/07/26 13:21:07;;;;;;;1.67;1.58;;;;;;;;;;4975635;28;20874;-84
2021/07/26 13:23:34;;;;;;;2.00;1.83;;;;;;;;;;4975116;28;20287;-87
2021/07/26 13:26:02;;;;;;;1.98;1.50;;;;;;;;;;4975430;28;20666;-85
2021/07/26 13:28:29;;;;;;;1.83;1.73;;;;;;;;;;4974878;28;20207;-85
2021/07/26 13:30:58;;;;;;;1.75;1.52;;;;;;;;;;4975753;28;20224;-85
2021/07/26 13:33:26;;;;;;;1.58;1.48;;;;;;;;;;4975516;28;20944;-87
2021/07/26 13:35:56;;;;;;;1.50;1.40;;;;;;;;;;4975236;28;20196;-86
2021/07/26 13:38:30;;;;;;;1.98;1.88;;;;;;;;;;4975421;28;20729;-85
2021/07/26 13:41:01;;;;;;;1.17;1.17;;;;;;;;;;4975256;28;20220;-86
2021/07/26 13:43:29;;;;;;;1.65;1.45;;;;;;;;;;4973338;28;20200;-86
2021/07/26 13:45:59;;;;;;;1.50;1.40;;;;;;;;;;4975579;28;20200;-85
2021/07/26 13:48:26;;;;;;;1.60;1.50;;;;;;;;;;4974022;28;20204;-85
2021/07/26 13:50:54;;;;;;;1.65;1.30;;;;;;;;;;4974887;28;20228;-85
2021/07/26 13:53:22;;;;;;;1.52;1.42;;;;;;;;;;4974700;28;20648;-85
2021/07/26 13:55:49;;;;;;;1.50;1.40;;;;;;;;;;4974956;28;20295;-85
2021/07/26 13:58:16;;;;;;;1.40;1.30;;;;;;;;;;4975033;28;20212;-85
2021/07/26 14:00:44;;;;;;;3.05;2.40;;;;;;;;;;4972534;28;20233;-85
2021/07/26 14:03:16;;;;;;;2.20;2.00;;;;;;;;;;4975483;28;20935;-86
2021/07/26 14:05:45;;;;;;;2.13;1.92;;;;;;;;;;4975100;28;20255;-85
2021/07/26 14:08:19;;;;;;;1.55;1.45;;;;;;;;;;4991169;28;20191;-86
2021/07/26 14:10:48;;;;;;;1.17;1.15;;;;;;;;;;4990168;28;20211;-85
2021/07/26 14:13:16;;;;;;;1.35;1.25;;;;;;;;;;4982888;28;20200;-84
2021/07/26 14:15:44;;;;;;;1.35;1.25;;;;;;;;;;4975239;28;20206;-85
2021/07/26 14:18:14;;;;;;;1.17;1.17;;;;;;;;;;4972263;28;20220;-85
2021/07/26 14:20:42;;;;;;;1.13;1.13;;;;;;;;;;4957506;28;20235;-85
2021/07/26 14:23:10;;;;;;;1.45;1.35;;;;;;;;;;4959746;28;20248;-85
2021/07/26 14:25:39;;;;;;;1.50;1.40;;;;;;;;;;4976501;28;20204;-85
2021/07/26 14:28:07;;;;;;;1.30;1.20;;;;;;;;;;4976230;28;20666;-85
2021/07/26 14:30:38;;;;;;;1.42;1.33;;;;;;;;;;4975686;28;20225;-85
2021/07/26 14:33:06;;;;;;;1.10;1.10;;;;;;;;;;4974775;28;20639;-85
2021/07/26 14:35:35;;;;;;;1.10;1.10;;;;;;;;;;4975040;28;20203;-85
2021/07/26 14:38:03;;;;;;;1.55;1.45;;;;;;;;;;4974867;28;20716;-85
2021/07/26 14:40:31;;;;;;;1.30;1.20;;;;;;;;;;4974740;28;20228;-85
2021/07/26 14:42:59;;;;;;;1.30;1.20;;;;;;;;;;4974957;28;20201;-85
2021/07/26 14:45:26;;;;;;;1.35;1.25;;;;;;;;;;4974163;28;20211;-84
2021/07/26 14:47:55;;;;;;;1.45;1.35;;;;;;;;;;4974604;28;20561;-85
2021/07/26 14:50:22;;;;;;;1.25;1.23;;;;;;;;;;4974748;28;20231;-85
2021/07/26 14:52:51;;;;;;;1.30;1.20;;;;;;;;;;4974205;28;20192;-85
2021/07/26 14:55:19;;;;;;;1.50;1.40;;;;;;;;;;4974358;28;20208;-85
2021/07/26 14:57:46;;;;;;;0.90;0.90;;;;;;;;;;4973738;28;20192;-86
2021/07/26 15:00:15;;;;;;;1.02;1.02;;;;;;;;;;4973729;28;20243;-86
2021/07/26 15:02:44;;;;;;;1.65;1.55;;;;;;;;;;4958122;28;20196;-85